createdAt,value
2019-03-19T00:02:40.254Z,7.42
2019-03-19T00:05:23.085Z,4.95
2019-03-19T00:08:05.552Z,4.30
2019-03-19T00:10:48.574Z,4.72
2019-03-19T00:13:31.636Z,3.52
2019-03-19T00:16:07.279Z,7.58
2019-03-19T00:18:49.385Z,4.92
2019-03-19T00:21:25.390Z,2.58
2019-03-19T00:24:07.933Z,3.37
2019-03-19T00:26:43.565Z,5.78
2019-03-19T00:29:26.897Z,3.70
2019-03-19T00:32:03.253Z,5.33
2019-03-19T00:34:46.024Z,7.28
2019-03-19T00:37:21.632Z,3.75
2019-03-19T00:40:04.110Z,6.17
2019-03-19T00:42:47.134Z,7.22
2019-03-19T00:45:29.839Z,6.10
2019-03-19T00:48:06.310Z,3.57
2019-03-19T00:50:47.974Z,5.35
2019-03-19T00:53:23.875Z,4.08
2019-03-19T00:56:06.228Z,6.25
2019-03-19T00:58:42.125Z,7.47
2019-03-19T01:01:24.149Z,4.22
2019-03-19T01:04:00.505Z,3.75
2019-03-19T01:06:42.728Z,6.47
2019-03-19T01:09:18.800Z,4.17
2019-03-19T01:12:00.882Z,5.17
2019-03-19T01:14:36.464Z,6.55
2019-03-19T01:17:19.384Z,3.72
2019-03-19T01:19:55.373Z,4.83
2019-03-19T01:22:37.917Z,6.75
2019-03-19T01:25:16.574Z,5.87
2019-03-19T01:27:59.050Z,4.53
2019-03-19T01:30:41.788Z,5.85
2019-03-19T01:33:23.487Z,4.73
2019-03-19T01:36:06.068Z,6.08
2019-03-19T01:38:42.232Z,6.65
2019-03-19T01:41:24.452Z,7.53
2019-03-19T01:44:00.180Z,7.45
2019-03-19T01:46:42.525Z,8.15
2019-03-19T01:49:25.036Z,8.43
2019-03-19T01:52:01.370Z,7.28
2019-03-19T01:54:37.082Z,7.12
2019-03-19T01:57:20.050Z,9.35
2019-03-19T01:59:55.623Z,6.70
2019-03-19T02:02:37.959Z,9.45
2019-03-19T02:05:27.078Z,7.08
2019-03-19T02:08:09.099Z,6.78
2019-03-19T02:10:44.965Z,6.97
2019-03-19T02:13:26.614Z,7.12
2019-03-19T02:16:02.919Z,4.90
2019-03-19T02:18:45.021Z,9.20
2019-03-19T02:21:20.865Z,7.92
2019-03-19T02:24:03.476Z,13.60
2019-03-19T02:26:45.885Z,11.05
2019-03-19T02:29:22.428Z,7.62
2019-03-19T02:32:11.348Z,9.28
2019-03-19T02:34:53.518Z,4.97
2019-03-19T02:37:35.638Z,6.85
2019-03-19T02:40:23.985Z,6.20
2019-03-19T02:43:00.352Z,6.62
2019-03-19T02:45:42.190Z,7.22
2019-03-19T02:48:18.447Z,7.58
2019-03-19T02:51:00.760Z,5.55
2019-03-19T02:53:43.892Z,11.35
2019-03-19T02:56:33.723Z,10.43
2019-03-19T02:59:10.032Z,10.08
2019-03-19T03:01:52.682Z,11.75
2019-03-19T03:04:41.517Z,10.80
2019-03-19T03:07:23.675Z,15.25
2019-03-19T03:10:05.884Z,12.18
2019-03-19T03:12:55.696Z,11.05
2019-03-19T03:15:38.684Z,10.53
2019-03-19T03:18:15.206Z,14.05
2019-03-19T03:20:58.165Z,14.43
2019-03-19T03:23:41.273Z,8.65
2019-03-19T03:26:24.040Z,12.05
2019-03-19T03:28:59.515Z,10.05
2019-03-19T03:31:42.303Z,14.70
2019-03-19T03:34:24.568Z,12.50
2019-03-19T03:37:07.351Z,9.50
2019-03-19T03:39:43.169Z,15.78
2019-03-19T03:42:24.920Z,17.42
2019-03-19T03:45:00.516Z,8.85
2019-03-19T03:47:43.238Z,9.10
2019-03-19T03:50:31.281Z,3.23
2019-03-19T03:53:07.318Z,10.32
2019-03-19T03:55:50.269Z,11.50
2019-03-19T03:58:25.788Z,9.50
2019-03-19T04:01:08.720Z,9.73
2019-03-19T04:03:44.521Z,7.90
2019-03-19T04:06:33.344Z,10.45
2019-03-19T04:09:15.417Z,11.00
2019-03-19T04:11:58.370Z,10.15
2019-03-19T04:14:33.748Z,7.78
2019-03-19T04:17:16.261Z,8.50
2019-03-19T04:19:51.791Z,13.35
2019-03-19T04:22:34.796Z,9.78
2019-03-19T04:25:27.175Z,7.42
2019-03-19T04:28:10.018Z,9.63
2019-03-19T04:30:46.517Z,10.95
2019-03-19T04:33:29.167Z,11.60
2019-03-19T04:36:05.286Z,13.30
2019-03-19T04:38:48.076Z,10.70
2019-03-19T04:41:31.206Z,11.63
2019-03-19T04:44:06.704Z,14.68
2019-03-19T04:46:48.788Z,11.30
2019-03-19T04:49:24.420Z,13.22
2019-03-19T04:52:07.473Z,10.20
2019-03-19T04:54:56.844Z,8.68
2019-03-19T04:57:39.554Z,12.03
2019-03-19T05:00:21.395Z,9.47
2019-03-19T05:03:03.980Z,10.75
2019-03-19T05:05:40.008Z,12.40
2019-03-19T05:08:23.052Z,10.85
2019-03-19T05:11:05.528Z,11.97
2019-03-19T05:13:47.994Z,9.88
2019-03-19T05:16:24.422Z,12.82
2019-03-19T05:19:07.310Z,11.97
2019-03-19T05:21:49.320Z,9.68
2019-03-19T05:24:31.164Z,9.88
2019-03-19T05:27:07.600Z,16.87
2019-03-19T05:29:50.201Z,12.47
2019-03-19T05:32:26.270Z,13.03
2019-03-19T05:35:08.973Z,11.40
2019-03-19T05:37:50.923Z,13.20
2019-03-19T05:40:33.551Z,10.90
2019-03-19T05:43:09.400Z,9.18
2019-03-19T05:45:52.385Z,18.52
2019-03-19T05:48:27.990Z,10.63
2019-03-19T05:51:10.532Z,11.75
2019-03-19T05:53:52.859Z,14.63
2019-03-19T05:56:35.215Z,11.50
2019-03-19T05:59:11.244Z,14.00
2019-03-19T06:01:53.970Z,12.50
2019-03-19T06:04:30.446Z,10.17
2019-03-19T06:07:13.242Z,12.15
2019-03-19T06:09:49.715Z,11.77
2019-03-19T06:12:32.446Z,16.93
2019-03-19T06:15:08.815Z,11.77
2019-03-19T06:17:51.083Z,13.65
2019-03-19T06:20:27.745Z,12.80
2019-03-19T06:23:10.182Z,10.23
2019-03-19T06:25:46.190Z,10.70
2019-03-19T06:28:28.679Z,13.45
2019-03-19T06:31:04.343Z,12.82
2019-03-19T06:33:48.239Z,12.23
2019-03-19T06:36:24.619Z,9.60
2019-03-19T06:39:07.255Z,13.58
2019-03-19T06:41:43.595Z,8.53
2019-03-19T06:44:26.515Z,17.00
2019-03-19T06:47:02.733Z,9.18
2019-03-19T06:49:44.967Z,15.75
2019-03-19T06:52:27.962Z,10.90
2019-03-19T06:55:03.975Z,13.85
2019-03-19T06:57:46.396Z,12.82
2019-03-19T07:00:24.174Z,13.62
2019-03-19T07:03:06.476Z,10.45
2019-03-19T07:05:49.358Z,10.50
2019-03-19T07:08:25.658Z,10.77
2019-03-19T07:11:08.640Z,9.28
2019-03-19T07:13:50.924Z,10.70
2019-03-19T07:16:39.781Z,13.80
2019-03-19T07:19:15.603Z,13.35
2019-03-19T07:21:58.344Z,10.35
2019-03-19T07:24:40.923Z,12.10
2019-03-19T07:27:24.017Z,12.98
2019-03-19T07:30:06.106Z,8.73
2019-03-19T07:32:42.598Z,9.83
2019-03-19T07:35:25.091Z,13.45
2019-03-19T07:38:01.586Z,10.68
2019-03-19T07:40:45.036Z,13.20
2019-03-19T07:43:28.155Z,12.30
2019-03-19T07:49:03.709Z,9.25
2019-03-19T07:51:46.536Z,10.13
2019-03-19T07:54:23.013Z,12.63
2019-03-19T07:57:05.008Z,10.72
2019-03-19T07:59:40.496Z,13.68
2019-03-19T08:02:23.311Z,11.30
2019-03-19T08:04:59.629Z,9.40
2019-03-19T08:07:41.676Z,10.35
2019-03-19T08:10:23.064Z,11.22
2019-03-19T08:13:05.531Z,9.93
2019-03-19T08:15:41.695Z,5.37
2019-03-19T08:18:24.714Z,4.67
2019-03-19T08:21:01.141Z,10.15
2019-03-19T08:23:43.614Z,7.15
2019-03-19T08:26:19.163Z,7.40
2019-03-19T08:29:02.035Z,7.40
2019-03-19T08:31:37.934Z,9.57
2019-03-19T08:34:20.766Z,8.93
2019-03-19T08:36:56.624Z,9.20
2019-03-19T08:39:38.434Z,6.62
2019-03-19T08:42:14.218Z,6.95
2019-03-19T08:44:55.826Z,6.87
2019-03-19T08:47:45.365Z,7.78
2019-03-19T08:50:31.336Z,6.78
2019-03-19T08:53:07.493Z,9.18
2019-03-19T08:55:50.394Z,4.37
2019-03-19T08:58:26.692Z,8.23
2019-03-19T09:01:10.105Z,4.90
2019-03-19T09:03:46.249Z,8.73
2019-03-19T09:06:29.002Z,2.33
2019-03-19T09:09:05.301Z,3.75
2019-03-19T09:11:47.207Z,6.03
2019-03-19T09:14:23.240Z,6.03
2019-03-19T09:17:05.884Z,6.15
2019-03-19T09:19:48.743Z,3.95
2019-03-19T09:22:30.709Z,3.23
2019-03-19T09:25:06.415Z,5.92
2019-03-19T09:27:48.641Z,6.42
2019-03-19T09:30:45.135Z,6.22
2019-03-19T09:33:27.736Z,2.00
2019-03-19T09:36:10.227Z,6.70
2019-03-19T09:38:59.094Z,4.85
2019-03-19T09:41:40.739Z,3.62
2019-03-19T09:44:17.334Z,5.55
2019-03-19T09:46:59.694Z,6.47
2019-03-19T09:49:42.820Z,5.85
2019-03-19T09:52:35.028Z,4.65
2019-03-19T09:55:19.909Z,2.90
2019-03-19T09:57:56.363Z,4.05
2019-03-19T10:00:39.065Z,6.92
2019-03-19T10:03:14.664Z,5.83
2019-03-19T10:05:57.655Z,3.85
2019-03-19T10:08:40.224Z,4.17
2019-03-19T10:11:16.060Z,3.92
2019-03-19T10:13:58.475Z,8.10
2019-03-19T10:16:41.509Z,5.30
2019-03-19T10:19:17.157Z,4.12
2019-03-19T10:21:59.994Z,4.12
2019-03-19T10:24:36.414Z,7.53
2019-03-19T10:27:19.750Z,5.67
2019-03-19T10:30:02.423Z,7.65
2019-03-19T10:32:44.533Z,8.85
2019-03-19T10:35:21.400Z,12.95
2019-03-19T10:37:57.122Z,12.90
2019-03-19T10:40:39.852Z,11.00
2019-03-19T10:43:15.646Z,7.85
2019-03-19T10:45:57.809Z,6.35
2019-03-19T10:48:40.320Z,10.25
2019-03-19T10:51:16.403Z,7.97
2019-03-19T10:53:58.631Z,7.17
2019-03-19T10:56:34.500Z,8.68
2019-03-19T10:59:17.284Z,10.28
2019-03-19T11:01:53.671Z,5.57
2019-03-19T11:04:36.648Z,4.40
2019-03-19T11:07:19.062Z,5.55
2019-03-19T11:10:01.815Z,8.85
2019-03-19T11:12:37.979Z,8.50
2019-03-19T11:15:23.653Z,5.37
2019-03-19T11:18:00.299Z,7.12
2019-03-19T11:20:45.387Z,5.55
2019-03-19T11:23:20.456Z,7.05
2019-03-19T11:26:03.313Z,5.95
2019-03-19T11:28:39.795Z,7.57
2019-03-19T11:31:22.941Z,7.92
2019-03-19T11:33:58.832Z,5.12
2019-03-19T11:36:41.806Z,4.00
2019-03-19T11:39:17.416Z,4.55
2019-03-19T11:42:00.076Z,6.33
2019-03-19T11:44:35.970Z,3.92
2019-03-19T11:47:18.512Z,8.38
2019-03-19T11:49:54.892Z,4.37
2019-03-19T11:52:36.535Z,8.65
2019-03-19T11:55:22.882Z,7.80
2019-03-19T11:58:05.545Z,6.62
2019-03-19T12:00:42.892Z,8.08
2019-03-19T12:03:25.039Z,5.12
2019-03-19T12:06:07.344Z,8.18
2019-03-19T12:08:43.273Z,7.92
2019-03-19T12:11:25.506Z,8.88
2019-03-19T12:14:14.492Z,10.58
2019-03-19T12:16:56.715Z,7.62
2019-03-19T12:19:39.283Z,5.83
2019-03-19T12:22:27.972Z,5.45
2019-03-19T12:25:11.853Z,4.08
2019-03-19T12:27:55.287Z,3.62
2019-03-19T12:30:38.246Z,2.15
2019-03-19T12:33:14.675Z,9.00
2019-03-19T12:35:57.853Z,4.05
2019-03-19T12:38:34.241Z,4.05
2019-03-19T12:41:16.853Z,3.22
2019-03-19T12:43:52.823Z,2.98
2019-03-19T12:46:36.296Z,3.67
2019-03-19T12:49:18.337Z,5.65
2019-03-19T12:52:00.355Z,5.03
2019-03-19T12:54:37.795Z,2.05
2019-03-19T12:57:20.496Z,1.87
2019-03-19T12:59:57.163Z,1.30
2019-03-19T13:02:39.533Z,2.85
2019-03-19T13:05:16.837Z,3.40
2019-03-19T13:07:59.462Z,3.72
2019-03-19T13:10:35.817Z,4.55
2019-03-19T13:13:18.749Z,4.42
2019-03-19T13:15:55.081Z,6.27
2019-03-19T13:18:37.834Z,6.00
2019-03-19T13:21:20.377Z,4.80
2019-03-19T13:24:02.910Z,3.22
2019-03-19T13:26:39.408Z,3.98
2019-03-19T13:29:20.993Z,3.52
2019-03-19T13:32:04.259Z,2.87
2019-03-19T13:34:53.042Z,6.95
2019-03-19T13:37:29.268Z,4.97
2019-03-19T13:40:11.632Z,5.30
2019-03-19T13:42:54.114Z,3.08
2019-03-19T13:45:30.959Z,3.80
2019-03-19T13:48:13.777Z,2.62
2019-03-19T13:50:50.321Z,4.30
2019-03-19T13:53:32.962Z,3.90
2019-03-19T13:56:09.059Z,6.50
2019-03-19T13:58:51.699Z,2.25
2019-03-19T14:01:27.284Z,6.80
2019-03-19T14:04:09.934Z,6.83
2019-03-19T14:06:46.358Z,4.00
2019-03-19T14:09:28.357Z,4.30
2019-03-19T14:12:10.587Z,6.08
2019-03-19T14:14:53.334Z,4.20
2019-03-19T14:17:29.795Z,4.05
2019-03-19T14:20:20.635Z,6.72
2019-03-19T14:23:04.100Z,4.60
2019-03-19T14:25:39.850Z,3.65
2019-03-19T14:28:22.290Z,6.58
2019-03-19T14:31:08.443Z,6.35
2019-03-19T14:33:42.160Z,3.87
2019-03-19T14:36:24.985Z,6.10
2019-03-19T14:39:07.286Z,4.07
2019-03-19T14:41:42.807Z,4.47
2019-03-19T14:44:25.272Z,8.23
2019-03-19T14:47:14.621Z,5.87
2019-03-19T14:49:56.715Z,4.40
2019-03-19T14:52:39.571Z,4.95
2019-03-19T14:55:22.934Z,9.23
2019-03-19T14:57:58.600Z,7.15
2019-03-19T15:00:41.903Z,4.83
2019-03-19T15:03:18.391Z,2.85
2019-03-19T15:06:00.950Z,3.60
2019-03-19T15:08:37.333Z,4.08
2019-03-19T15:11:20.315Z,6.25
2019-03-19T15:13:56.863Z,7.37
2019-03-19T15:16:39.197Z,4.58
2019-03-19T15:19:21.795Z,5.95
2019-03-19T15:21:58.145Z,7.75
2019-03-19T15:24:40.964Z,7.33
2019-03-19T15:27:23.085Z,7.23
2019-03-19T15:29:59.545Z,8.50
2019-03-19T15:32:41.761Z,7.35
2019-03-19T15:35:24.940Z,4.45
2019-03-19T15:38:07.225Z,5.12
2019-03-19T15:40:43.209Z,8.98
2019-03-19T15:43:25.638Z,7.28
2019-03-19T15:46:01.808Z,10.48
2019-03-19T15:48:44.700Z,8.78
2019-03-19T15:51:28.030Z,6.97
2019-03-19T15:54:10.148Z,8.90
2019-03-19T15:56:52.983Z,9.25
2019-03-19T15:59:28.397Z,7.87
2019-03-19T16:02:11.550Z,7.60
2019-03-19T16:05:00.773Z,9.80
2019-03-19T16:07:36.336Z,7.53
2019-03-19T16:10:22.203Z,7.37
2019-03-19T16:13:04.473Z,10.60
2019-03-19T16:15:41.060Z,8.48
2019-03-19T16:18:23.650Z,9.23
2019-03-19T16:21:00.446Z,11.57
2019-03-19T16:23:42.579Z,9.40
2019-03-19T16:26:18.508Z,8.95
2019-03-19T16:29:02.108Z,14.03
2019-03-19T16:31:37.840Z,11.22
2019-03-19T16:34:21.480Z,10.23
2019-03-19T16:39:39.216Z,12.18
2019-03-19T16:42:15.796Z,16.37
2019-03-19T16:44:58.100Z,59.38
2019-03-19T16:47:34.266Z,14.13
2019-03-19T16:50:20.930Z,13.72
2019-03-19T16:52:57.153Z,61.53
2019-03-19T16:55:39.132Z,82.20
2019-03-19T16:58:14.985Z,50.70
2019-03-19T17:00:57.366Z,88.87
2019-03-19T17:03:40.414Z,128.38
2019-03-19T17:06:23.685Z,130.45
2019-03-19T17:09:13.646Z,122.05
2019-03-19T17:11:56.354Z,165.25
2019-03-19T17:14:39.265Z,83.17
2019-03-19T17:17:28.703Z,154.70
2019-03-19T17:20:04.556Z,129.05
2019-03-19T17:22:47.515Z,64.25
2019-03-19T17:25:37.806Z,134.37
2019-03-19T17:28:27.244Z,141.60
2019-03-19T17:31:10.162Z,109.85
2019-03-19T17:33:52.725Z,180.23
2019-03-19T17:36:28.483Z,186.40
2019-03-19T17:39:11.411Z,91.63
2019-03-19T17:41:47.005Z,53.17
2019-03-19T17:44:30.175Z,74.90
2019-03-19T17:47:19.385Z,120.37
2019-03-19T17:49:55.714Z,83.60
2019-03-19T17:52:38.166Z,92.82
2019-03-19T17:55:14.283Z,55.65
2019-03-19T17:57:57.482Z,69.50
2019-03-19T18:00:54.319Z,57.08
2019-03-19T18:03:36.621Z,43.68
2019-03-19T18:06:19.141Z,41.35
2019-03-19T18:09:01.799Z,100.18
2019-03-19T18:11:38.275Z,178.30
2019-03-19T18:14:16.154Z,91.15
2019-03-19T18:16:58.673Z,55.60
2019-03-19T18:19:41.208Z,56.30
2019-03-19T18:22:23.538Z,118.50
2019-03-19T18:25:05.453Z,113.97
2019-03-19T18:27:41.913Z,88.50
2019-03-19T18:30:34.450Z,46.83
2019-03-19T18:33:17.099Z,42.43
2019-03-19T18:35:56.297Z,58.35
2019-03-19T18:38:38.077Z,52.03
2019-03-19T18:41:27.322Z,45.67
2019-03-19T18:44:10.222Z,36.70
2019-03-19T18:46:45.802Z,40.70
2019-03-19T18:49:28.364Z,39.98
2019-03-19T18:52:04.699Z,44.00
2019-03-19T18:54:48.131Z,42.53
2019-03-19T18:57:31.201Z,48.83
2019-03-19T19:00:23.939Z,40.23
2019-03-19T19:02:59.676Z,47.62
2019-03-19T19:05:49.340Z,40.58
2019-03-19T19:08:25.316Z,37.15
2019-03-19T19:11:07.998Z,25.62
2019-03-19T19:13:44.350Z,24.87
2019-03-19T19:16:27.122Z,22.10
2019-03-19T19:19:09.764Z,19.13
2019-03-19T19:21:46.282Z,19.50
2019-03-19T19:24:29.244Z,21.33
2019-03-19T19:27:04.986Z,19.17
2019-03-19T19:29:47.258Z,19.20
2019-03-19T19:32:30.001Z,19.85
2019-03-19T19:35:13.797Z,19.77
2019-03-19T19:37:50.172Z,21.10
2019-03-19T19:40:32.627Z,17.85
2019-03-19T19:43:08.747Z,21.75
2019-03-19T19:45:51.799Z,21.57
2019-03-19T19:48:27.787Z,34.23
2019-03-19T19:51:10.373Z,42.55
2019-03-19T19:53:52.539Z,47.35
2019-03-19T19:56:28.404Z,51.68
2019-03-19T19:59:10.854Z,44.53
2019-03-19T20:02:00.568Z,52.25
2019-03-19T20:04:36.285Z,54.03
2019-03-19T20:07:19.034Z,57.62
2019-03-19T20:09:54.547Z,44.60
2019-03-19T20:12:37.124Z,41.90
2019-03-19T20:15:14.456Z,48.13
2019-03-19T20:17:59.092Z,53.87
2019-03-19T20:20:42.752Z,49.67
2019-03-19T20:26:00.938Z,35.55
2019-03-19T20:28:43.631Z,45.78
2019-03-19T20:31:25.922Z,37.03
2019-03-19T20:34:01.804Z,42.10
2019-03-19T20:36:44.257Z,55.90
2019-03-19T20:39:27.107Z,40.25
2019-03-19T20:42:16.166Z,43.92
2019-03-19T20:44:52.142Z,60.50
2019-03-19T20:47:35.014Z,77.17
2019-03-19T20:50:21.597Z,73.67
2019-03-19T20:52:57.660Z,61.90
2019-03-19T20:55:40.625Z,61.20
2019-03-19T20:58:23.750Z,66.62
2019-03-19T21:01:00.252Z,59.35
2019-03-19T21:03:42.606Z,58.05
2019-03-19T21:06:25.322Z,52.88
2019-03-19T21:09:07.869Z,37.27
2019-03-19T21:11:43.588Z,36.80
2019-03-19T21:14:25.820Z,42.17
2019-03-19T21:17:07.795Z,35.23
2019-03-19T21:19:56.606Z,36.80
2019-03-19T21:22:39.387Z,40.98
2019-03-19T21:25:15.484Z,27.97
2019-03-19T21:27:57.918Z,36.68
2019-03-19T21:30:34.033Z,41.02
2019-03-19T21:33:16.471Z,36.60
2019-03-19T21:35:52.467Z,34.95
2019-03-19T21:38:35.220Z,36.88
2019-03-19T21:41:17.537Z,33.73
2019-03-19T21:44:00.331Z,42.03
2019-03-19T21:46:43.247Z,37.23
2019-03-19T21:49:25.968Z,33.35
2019-03-19T21:52:02.415Z,30.23
2019-03-19T21:54:45.080Z,30.37
2019-03-19T21:57:28.093Z,29.13
2019-03-19T22:00:11.846Z,32.08
2019-03-19T22:02:54.883Z,28.83
2019-03-19T22:05:30.619Z,19.15
2019-03-19T22:08:13.525Z,28.52
2019-03-19T22:10:49.175Z,28.32
2019-03-19T22:13:31.368Z,29.40
2019-03-19T22:16:13.988Z,25.90
2019-03-19T22:18:56.995Z,22.55
2019-03-19T22:21:39.736Z,20.62
2019-03-19T22:24:16.255Z,23.27
2019-03-19T22:26:58.427Z,24.85
2019-03-19T22:29:34.641Z,23.18
2019-03-19T22:32:16.532Z,19.55
2019-03-19T22:34:52.948Z,22.55
2019-03-19T22:37:34.811Z,20.15
2019-03-19T22:40:25.600Z,25.30
2019-03-19T22:43:08.199Z,20.55
2019-03-19T22:45:44.553Z,19.37
2019-03-19T22:48:27.950Z,18.60
2019-03-19T22:51:04.517Z,20.45
2019-03-19T22:53:46.551Z,19.77
2019-03-19T22:56:23.122Z,26.02
2019-03-19T22:59:05.731Z,21.05
2019-03-19T23:01:47.867Z,23.92
2019-03-19T23:04:30.710Z,25.52
2019-03-19T23:07:13.216Z,21.02
2019-03-19T23:10:02.813Z,22.60
2019-03-19T23:12:47.001Z,19.05
2019-03-19T23:15:30.216Z,22.65
2019-03-19T23:18:14.076Z,25.77
2019-03-19T23:20:56.155Z,16.25
2019-03-19T23:23:32.566Z,18.90
2019-03-19T23:26:08.480Z,16.23
2019-03-19T23:28:50.824Z,17.07
2019-03-19T23:31:32.604Z,13.03
2019-03-19T23:34:15.814Z,19.02
2019-03-19T23:36:51.302Z,17.20
2019-03-19T23:39:34.266Z,17.02
2019-03-19T23:42:10.247Z,17.85
2019-03-19T23:44:52.900Z,16.37
2019-03-19T23:47:35.404Z,16.60
2019-03-19T23:50:15.815Z,17.73
2019-03-19T23:52:58.573Z,13.22
2019-03-19T23:55:47.434Z,14.53
2019-03-19T23:58:23.009Z,16.80
